Thunder radar more information blitzortung!


Löydät sääaseman tiedot myös:

European Weather Network

Finland Weather Exchange

Weather Underground

AWEKAS



Weather Underground säähistoriasivu

Päivittäin yhteenveto Maaliskuu 7, 2017 Yksiköt:  Englantilaiset    Metriset   Molemmat
« Edellinen Päivä
Seuraava Päivä »
Päivittäin Viikoittain Kuukausittain Vuosittain Mukautettu
  Korkea: Matala: Keskiarvo:
Lämpötila: TemperatureC °F -13.2 °F -6.7 °F
Kastepiste: DewpointC °F -14.5 °F -9.4 °F
Kosteus: Humidity % 66 % 81 %
Tuulen nopeus: WindSpeedKMH mph 0.0 mph 0.4 mph
Tuulenpuuska: WindSpeedGustKMH mph - -
Tuuli:- - SE
Ilmanpaine: PressurehPa in 1017.8 in -
Sade: 0.0 in    
Historical Graphs
 
 
Taulukkotiedot Maaliskuu 7, 2017
Aika Lämpötila Kastepiste Ilmanpaine Tuuli Tuulen nopeus Tuulenpuuska Kosteus Sademäärä (tunneittain)
TemperatureC °F DewpointC °F PressurehPa in Calm     Humidity % HourlyPrecipMM in
00:00 -10.9 °F -12.0 °F 1027.3 in Calm     92 % 0.0 in
00:15 -11.1 °F -12.1 °F 1027.3 in Calm     92 % 0.0 in
00:30 -11.0 °F -12.0 °F 1027.3 in Calm     92 % 0.0 in
00:45 -11.1 °F -12.2 °F 1027.7 in Calm     92 % 0.0 in
01:00 -11.4 °F -12.6 °F 1027.7 in Calm   3.2 mph 91 % 0.0 in
01:15 -11.3 °F -12.3 °F 1027.7 in Calm     92 % 0.0 in
01:30 -11.4 °F -12.6 °F 1027.7 in Calm     91 % 0.0 in
01:45 -11.4 °F -12.5 °F 1027.7 in Calm     92 % 0.0 in
02:00 -11.3 °F -12.3 °F 1027.7 in Calm     92 % 0.0 in
02:15 -11.2 °F -12.3 °F 1027.7 in Calm     92 % 0.0 in
02:30 -11.5 °F -12.7 °F 1027.7 in Calm     91 % 0.0 in
02:45 -11.8 °F -13.0 °F 1027.7 in Calm     91 % 0.0 in
03:00 -11.9 °F -13.0 °F 1027.7 in Calm     92 % 0.0 in
03:15 -11.9 °F -13.1 °F 1027.3 in Calm     91 % 0.0 in
03:30 -12.2 °F -13.5 °F 1027.7 in Calm     90 % 0.0 in
03:45 -12.3 °F -13.5 °F 1027.3 in Calm     91 % 0.0 in
04:00 -12.3 °F -13.4 °F 1027.3 in Calm     91 % 0.0 in
04:15 -12.3 °F -13.5 °F 1027.3 in Calm   3.2 mph 91 % 0.0 in
04:30 -12.5 °F -13.7 °F 1027.3 in Calm     91 % 0.0 in
04:45 -12.7 °F -13.8 °F 1027.3 in Calm     91 % 0.0 in
05:00 -12.8 °F -14.1 °F 1027.3 in Calm     90 % 0.0 in
05:15 -12.9 °F -14.0 °F 1027.3 in Calm     91 % 0.0 in
05:30 -13.0 °F -14.3 °F 1027.3 in Calm     90 % 0.0 in
05:45 -13.2 °F -14.3 °F 1027.3 in Calm     91 % 0.0 in
06:00 -13.2 °F -14.3 °F 1027.3 in Calm     91 % 0.0 in
06:15 -13.2 °F -14.5 °F 1027.3 in Calm   1.6 mph 90 % 0.0 in
06:30 -13.1 °F -14.3 °F 1027.0 in Calm     91 % 0.0 in
06:45 -12.8 °F -13.9 °F 1027.0 in Calm     92 % 0.0 in
07:00 -12.9 °F -14.2 °F 1027.0 in Calm     90 % 0.0 in
07:15 -13.0 °F -14.2 °F 1027.0 in Calm   1.6 mph 91 % 0.0 in
07:30 -12.9 °F -14.0 °F 1027.0 in Calm     91 % 0.0 in
07:45 -12.7 °F -13.9 °F 1027.0 in Calm     91 % 0.0 in
08:00 -12.6 °F -13.7 °F 1027.3 in Calm   1.6 mph 91 % 0.0 in
08:15 -12.3 °F -13.4 °F 1027.3 in Calm   1.6 mph 92 % 0.0 in
08:30 -12.0 °F -13.0 °F 1027.0 in Calm   1.6 mph 92 % 0.0 in
08:45 -11.7 °F -12.8 °F 1027.0 in Calm     92 % 0.0 in
09:00 -11.4 °F -12.5 °F 1027.0 in Calm   1.6 mph 92 % 0.0 in
09:15 -11.2 °F -12.3 °F 1027.0 in Calm     92 % 0.0 in
09:30 -10.9 °F -12.0 °F 1027.0 in Calm   1.6 mph 92 % 0.0 in
09:45 -10.5 °F -11.5 °F 1026.6 in Calm     92 % 0.0 in
10:00 -10.1 °F -11.0 °F 1026.6 in Calm     93 % 0.0 in
10:15 -9.7 °F -10.8 °F 1026.3 in Calm   1.6 mph 92 % 0.0 in
10:30 -9.1 °F -10.0 °F 1026.3 in Calm   1.6 mph 93 % 0.0 in
10:45 -8.2 °F -9.0 °F 1026.0 in Calm   1.6 mph 94 % 0.0 in
11:00 -7.5 °F -8.4 °F 1025.6 in Calm   3.2 mph 93 % 0.0 in
11:15 -6.8 °F -7.6 °F 1025.6 in Calm   3.2 mph 94 % 0.0 in
11:30 -6.1 °F -7.1 °F 1025.3 in Calm   3.2 mph 93 % 0.0 in
11:45 -5.3 °F -6.4 °F 1025.3 in Calm   1.6 mph 92 % 0.0 in
12:00 -4.4 °F -6.1 °F 1024.9 in Calm   4.8 mph 88 % 0.0 in
12:15 -3.5 °F -5.8 °F 1024.9 in Calm   6.4 mph 84 % 0.0 in
12:30 -2.9 °F -6.1 °F 1024.6 in Calm   4.8 mph 79 % 0.0 in
12:45 -3.2 °F -6.6 °F 1024.3 in NNE 1.6 mph 11.3 mph 77 % 0.0 in
13:00 -2.8 °F -6.3 °F 1024.3 in Calm   3.2 mph 77 % 0.0 in
13:15 -2.4 °F -6.6 °F 1024.3 in NNE 1.6 mph 11.3 mph 73 % 0.0 in
13:30 -2.1 °F -6.3 °F 1023.9 in Calm   4.8 mph 73 % 0.0 in
13:45 -1.9 °F -6.3 °F 1023.9 in North 1.6 mph 6.4 mph 72 % 0.0 in
14:00 -1.6 °F -6.4 °F 1023.6 in North 1.6 mph 12.9 mph 70 % 0.0 in
14:15 -1.7 °F -6.8 °F 1023.2 in Calm   6.4 mph 68 % 0.0 in
14:30 -1.8 °F -6.9 °F 1023.2 in ESE 1.6 mph 6.4 mph 68 % 0.0 in
14:45 -1.9 °F -7.1 °F 1022.9 in NNE 1.6 mph 8.0 mph 68 % 0.0 in
15:00 -1.9 °F -6.6 °F 1022.9 in Calm   4.8 mph 70 % 0.0 in
15:15 -1.7 °F -6.7 °F 1022.6 in Calm   6.4 mph 69 % 0.0 in
15:30 -1.6 °F -6.6 °F 1022.2 in Calm   4.8 mph 69 % 0.0 in
15:45 -1.6 °F -6.6 °F 1021.9 in North 1.6 mph 6.4 mph 69 % 0.0 in
16:00 -1.4 °F -6.4 °F 1021.9 in NNE 1.6 mph 8.0 mph 69 % 0.0 in
16:15 -1.3 °F -6.5 °F 1021.6 in East 1.6 mph 8.0 mph 68 % 0.0 in
16:30 -1.5 °F -7.0 °F 1021.6 in NE 1.6 mph 8.0 mph 66 % 0.0 in
16:45 -1.6 °F -6.3 °F 1021.2 in Calm   3.2 mph 70 % 0.0 in
17:00 -1.7 °F -6.5 °F 1021.2 in Calm   3.2 mph 70 % 0.0 in
17:15 -1.8 °F -6.8 °F 1020.9 in Calm   4.8 mph 69 % 0.0 in
17:30 -2.0 °F -6.7 °F 1020.9 in Calm   4.8 mph 70 % 0.0 in
17:45 -2.0 °F -6.9 °F 1020.9 in North 1.6 mph 6.4 mph 69 % 0.0 in
18:00 -2.1 °F -6.4 °F 1020.5 in Calm   6.4 mph 72 % 0.0 in
18:15 -2.1 °F -6.4 °F 1020.5 in Calm   3.2 mph 72 % 0.0 in
18:30 -2.1 °F -6.4 °F 1020.5 in Calm   8.0 mph 72 % 0.0 in
18:45 -2.1 °F -6.3 °F 1020.5 in WNW 1.6 mph 11.3 mph 73 % 0.0 in
19:00 -2.2 °F -6.5 °F 1020.2 in North 1.6 mph 8.0 mph 72 % 0.0 in
19:15 -2.2 °F -6.2 °F 1020.2 in Calm   1.6 mph 74 % 0.0 in
19:30 -2.3 °F -6.6 °F 1020.2 in Calm   6.4 mph 72 % 0.0 in
19:45 -2.3 °F -6.8 °F 1019.9 in NNE 1.6 mph 11.3 mph 71 % 0.0 in
20:00 -2.3 °F -6.5 °F 1019.9 in Calm   9.7 mph 73 % 0.0 in
20:15 -2.4 °F -6.8 °F 1019.5 in West 1.6 mph 8.0 mph 72 % 0.0 in
20:30 -2.4 °F -7.1 °F 1019.5 in SSE 1.6 mph 6.4 mph 70 % 0.0 in
20:45 -2.4 °F -6.9 °F 1019.5 in NW 1.6 mph 11.3 mph 71 % 0.0 in
21:00 -2.6 °F -6.9 °F 1019.2 in South 1.6 mph 9.7 mph 72 % 0.0 in
21:15 -2.6 °F -7.1 °F 1019.2 in NW 1.6 mph 9.7 mph 71 % 0.0 in
21:30 -2.5 °F -6.9 °F 1018.8 in South 1.6 mph 9.7 mph 72 % 0.0 in
21:45 -2.4 °F -7.0 °F 1018.8 in North 1.6 mph 9.7 mph 71 % 0.0 in
22:00 -2.4 °F -7.0 °F 1018.5 in NNE 1.6 mph 6.4 mph 71 % 0.0 in
22:15 -2.4 °F -6.8 °F 1018.5 in SE 1.6 mph 8.0 mph 72 % 0.0 in
22:30 -2.6 °F -6.7 °F 1018.5 in NE 1.6 mph 9.7 mph 73 % 0.0 in
22:45 -2.7 °F -6.7 °F 1018.2 in Calm   8.0 mph 74 % 0.0 in
23:00 -2.8 °F -6.4 °F 1018.2 in Calm   3.2 mph 76 % 0.0 in
23:15 -2.8 °F -6.4 °F 1018.2 in Calm   8.0 mph 76 % 0.0 in
23:30 -2.8 °F -6.6 °F 1017.8 in Calm   6.4 mph 75 % 0.0 in
23:45 -2.8 °F -6.3 °F 1017.8 in Calm   6.4 mph 77 % 0.0 in
Esan sääasema
Terveisin Weather Underground - 2.75 mb

Alkuperäinen skripti  Jim McMurry - jmcmurry@mwt.net Sovitettu myös templatelle  Wim van der Kuil - Leuven-Template.eu

Laitteet joita käytämme:

Sääasema
Davis VP2

Sääasemaohjelma
Cumulus

Sääaseman tietokone
Asus EeePC

Palveluntarjoaja
Suncomet

Davis VP2

Cumulus

Asus EeePC

Suncomet